Time;durP1;ratioP1;P1;durP2;ratioP2;P2;SDS_P1;SDS_P2;PMS_P1;PMS_P2;Temp;Humidity;BMP_temperature;BMP_pressure;BME280_temperature;BME280_humidity;BME280_pressure;Samples;Min_cycle;Max_cycle;Signal;HPM_P1;HPM_P2
2021/08/21 00:00:46;;;;;;;10.25;5.68;;;;;;;16.68;77.34;96922.75;127617;1093;22813;-82
2021/08/21 00:03:17;;;;;;;9.58;5.48;;;;;;;16.70;77.30;96920.55;127579;1093;25640;-83
2021/08/21 00:05:49;;;;;;;8.90;5.53;;;;;;;16.72;77.58;96923.70;127603;1093;23262;-83
2021/08/21 00:08:20;;;;;;;8.43;5.18;;;;;;;16.69;77.72;96921.65;127585;1093;23712;-83
2021/08/21 00:10:52;;;;;;;7.25;5.25;;;;;;;16.66;77.78;96911.53;127564;1093;33977;-83
2021/08/21 00:13:23;;;;;;;7.78;5.28;;;;;;;16.68;77.71;96920.08;127567;1093;23640;-82
2021/08/21 00:15:56;;;;;;;8.33;5.10;;;;;;;16.69;78.08;96919.76;127623;1093;25380;-82
2021/08/21 00:18:27;;;;;;;7.80;5.63;;;;;;;16.66;77.93;96917.67;127633;1093;24496;-83
2021/08/21 00:20:59;;;;;;;9.20;5.13;;;;;;;16.65;78.06;96917.98;127589;1093;26698;-83
2021/08/21 00:23:31;;;;;;;8.08;5.28;;;;;;;16.62;78.30;96925.55;127573;1093;25420;-81
2021/08/21 00:26:03;;;;;;;9.50;4.97;;;;;;;16.57;78.70;96936.37;127615;1093;24805;-82
2021/08/21 00:28:34;;;;;;;7.33;4.73;;;;;;;16.50;78.89;96925.33;127692;1093;24831;-82
2021/08/21 00:31:06;;;;;;;7.08;5.08;;;;;;;16.48;78.90;96924.86;127643;1093;23177;-82
2021/08/21 00:33:37;;;;;;;8.13;4.90;;;;;;;16.54;78.86;96925.50;127626;1093;23567;-82
2021/08/21 00:36:09;;;;;;;7.23;5.00;;;;;;;16.56;78.95;96924.09;127631;1092;24407;-82
2021/08/21 00:38:40;;;;;;;12.93;5.85;;;;;;;16.56;78.83;96925.97;127541;1093;24545;-83
2021/08/21 00:41:12;;;;;;;8.70;5.45;;;;;;;16.54;79.31;96926.28;127561;1093;23329;-84
2021/08/21 00:43:52;;;;;;;11.83;5.20;;;;;;;16.51;79.28;96923.44;127568;1093;23922;-83
2021/08/21 00:46:23;;;;;;;8.95;5.33;;;;;;;16.51;79.42;96923.44;127562;1093;23686;-83
2021/08/21 00:48:55;;;;;;;8.50;4.98;;;;;;;16.50;79.74;96917.30;127617;1092;26154;-82
2021/08/21 00:51:26;;;;;;;7.85;5.48;;;;;;;16.45;79.89;96924.66;127693;1093;23906;-82
2021/08/21 00:53:58;;;;;;;9.65;5.03;;;;;;;16.44;79.64;96918.52;127626;1093;23637;-82
2021/08/21 00:56:30;;;;;;;7.73;5.53;;;;;;;16.49;79.63;96915.72;127552;1093;25038;-82
2021/08/21 00:59:01;;;;;;;9.53;5.60;;;;;;;16.52;79.65;96908.96;127561;1093;26467;-82
2021/08/21 01:01:33;;;;;;;8.17;5.17;;;;;;;16.49;79.96;96910.38;127620;1093;24325;-82
2021/08/21 01:04:05;;;;;;;10.63;6.10;;;;;;;16.42;79.94;96906.55;127547;1092;29413;-82
2021/08/21 01:06:37;;;;;;;10.15;6.88;;;;;;;16.39;80.15;96907.95;127616;1093;28097;-84
2021/08/21 01:09:08;;;;;;;9.13;6.43;;;;;;;16.39;80.13;96907.95;127581;1093;27381;-83
2021/08/21 01:11:40;;;;;;;7.43;5.80;;;;;;;16.42;80.10;96909.22;127556;1093;26795;-82
2021/08/21 01:14:12;;;;;;;8.18;5.65;;;;;;;16.43;79.96;96900.09;127483;1093;61638;-82
2021/08/21 01:16:43;;;;;;;9.10;6.18;;;;;;;16.43;79.79;96914.27;127539;1093;28211;-83
2021/08/21 01:19:19;;;;;;;10.63;6.40;;;;;;;16.44;79.66;96909.70;127582;1093;22829;-83
2021/08/21 01:21:51;;;;;;;11.33;6.38;;;;;;;16.43;79.76;96916.15;127599;1093;30789;-83
2021/08/21 01:24:22;;;;;;;10.65;5.93;;;;;;;16.42;80.21;96915.36;127654;1093;23027;-83
2021/08/21 01:26:55;;;;;;;9.63;6.10;;;;;;;16.40;80.22;96914.88;127618;1093;26449;-82
2021/08/21 01:29:27;;;;;;;9.00;6.00;;;;;;;16.35;80.31;96907.00;127650;1093;23303;-82
2021/08/21 01:31:59;;;;;;;11.80;6.20;;;;;;;16.32;80.43;96913.73;127568;1093;25244;-82
2021/08/21 01:34:31;;;;;;;8.95;5.95;;;;;;;16.28;80.69;96918.13;127549;1093;25037;-82
2021/08/21 01:37:02;;;;;;;8.25;6.05;;;;;;;16.28;80.59;96911.98;127551;1093;32266;-82
2021/08/21 01:39:34;;;;;;;8.25;5.90;;;;;;;16.28;80.66;96917.34;127650;1093;25746;-82
2021/08/21 01:42:05;;;;;;;9.25;5.55;;;;;;;16.28;80.16;96912.78;127563;1093;25523;-82
2021/08/21 01:44:37;;;;;;;9.95;5.88;;;;;;;16.28;80.04;96917.34;127604;1093;23058;-82
2021/08/21 01:47:09;;;;;;;10.80;5.80;;;;;;;16.28;79.92;96917.34;127570;1093;24518;-84
2021/08/21 01:49:41;;;;;;;9.20;5.85;;;;;;;16.29;80.28;96919.70;127574;1093;25203;-82
2021/08/21 01:52:13;;;;;;;8.53;5.63;;;;;;;16.30;80.42;96915.14;127561;1093;27199;-82
2021/08/21 01:54:44;;;;;;;8.70;5.90;;;;;;;16.31;80.28;96914.05;127520;1093;29545;-83
2021/08/21 01:57:16;;;;;;;7.55;5.58;;;;;;;16.32;80.44;96911.06;127583;1092;24891;-82
2021/08/21 01:59:49;;;;;;;7.35;5.20;;;;;;;16.32;80.58;96913.73;127606;1093;26556;-82
2021/08/21 02:02:21;;;;;;;8.95;6.03;;;;;;;16.32;80.57;96912.95;127544;1093;26695;-82
2021/08/21 02:04:53;;;;;;;10.88;5.75;;;;;;;16.29;80.88;96913.56;127592;1093;24417;-82
2021/08/21 02:07:24;;;;;;;8.33;5.83;;;;;;;16.24;80.87;96916.38;127687;1092;24292;-81
2021/08/21 02:09:58;;;;;;;10.83;6.00;;;;;;;16.19;80.81;96917.31;127652;1093;27654;-84
2021/08/21 02:12:33;;;;;;;10.13;6.05;;;;;;;16.16;80.58;96909.88;127558;1093;30610;-82
2021/08/21 02:15:08;;;;;;;9.15;5.35;;;;;;;16.13;80.70;96907.81;127587;1093;22853;-83
2021/08/21 02:17:39;;;;;;;8.33;5.75;;;;;;;16.13;80.87;96901.68;127610;1093;30294;-84
2021/08/21 02:20:14;;;;;;;9.65;6.08;;;;;;;16.09;80.79;96901.52;127633;1092;28429;-83
2021/08/21 02:22:46;;;;;;;10.08;6.08;;;;;;;16.06;80.88;96902.13;127627;1093;22829;-83
2021/08/21 02:25:19;;;;;;;10.78;5.85;;;;;;;16.01;80.95;96908.38;127603;1093;27327;-82
2021/08/21 02:27:58;;;;;;;7.90;5.70;;;;;;;15.99;81.47;96904.43;127556;1093;53917;-83
2021/08/21 02:30:30;;;;;;;9.68;6.08;;;;;;;15.95;81.41;96903.47;127559;1093;24394;-81
2021/08/21 02:33:01;;;;;;;11.18;6.80;;;;;;;15.91;81.74;96911.31;127559;1093;26284;-82
2021/08/21 02:35:33;;;;;;;10.53;7.35;;;;;;;15.84;81.88;96908.27;127602;1093;27150;-81
2021/08/21 02:38:06;;;;;;;12.60;8.03;;;;;;;15.81;81.81;96902.75;127594;1093;26267;-83
2021/08/21 02:40:39;;;;;;;12.05;6.73;;;;;;;15.78;82.23;96906.03;127596;1093;23359;-83
2021/08/21 02:43:12;;;;;;;8.33;5.17;;;;;;;15.79;82.21;96911.08;127521;1093;33996;-83
2021/08/21 02:45:44;;;;;;;9.13;5.28;;;;;;;15.77;82.60;96909.80;127551;1093;57533;-83
2021/08/21 02:48:16;;;;;;;9.00;5.50;;;;;;;15.73;82.62;96901.58;127616;1092;27253;-82
2021/08/21 02:50:47;;;;;;;7.53;5.75;;;;;;;15.76;82.62;96910.87;127555;1093;24000;-82
2021/08/21 02:53:18;;;;;;;7.80;5.55;;;;;;;15.77;82.67;96907.92;127560;1093;26255;-82
2021/08/21 02:55:50;;;;;;;12.00;5.68;;;;;;;15.81;82.62;96908.09;127639;1093;23828;-82
2021/08/21 02:58:21;;;;;;;8.95;5.65;;;;;;;15.85;82.56;96909.84;127574;1093;26234;-82
2021/08/21 03:00:54;;;;;;;8.10;5.80;;;;;;;15.88;82.82;96909.23;127568;1093;24345;-83
2021/08/21 03:03:26;;;;;;;7.88;5.25;;;;;;;15.89;82.57;96918.83;127671;1093;22807;-83
2021/08/21 03:05:58;;;;;;;8.03;5.23;;;;;;;15.92;82.37;96922.80;127598;1093;86060;-82
2021/08/21 03:08:29;;;;;;;8.70;5.55;;;;;;;15.93;82.16;96917.14;127611;1093;25057;-82
2021/08/21 03:11:01;;;;;;;9.03;5.50;;;;;;;15.94;82.09;96920.61;127600;1093;24188;-82
2021/08/21 03:13:32;;;;;;;8.65;5.25;;;;;;;15.92;81.80;96923.59;127586;1093;40532;-82
2021/08/21 03:16:04;;;;;;;10.98;5.38;;;;;;;15.90;81.68;96925.75;127606;1093;22804;-82
2021/08/21 03:18:35;;;;;;;8.55;5.30;;;;;;;15.87;81.78;96922.91;127565;1093;25989;-82
2021/08/21 03:21:06;;;;;;;8.05;5.13;;;;;;;15.83;81.75;96924.62;127532;1093;28578;-83
2021/08/21 03:23:38;;;;;;;7.08;4.95;;;;;;;15.79;81.57;96932.45;127620;1093;29459;-82
2021/08/21 03:26:12;;;;;;;8.80;5.18;;;;;;;15.74;81.66;96930.67;127589;1093;22930;-82
2021/08/21 03:28:44;;;;;;;8.38;5.45;;;;;;;15.73;81.68;96934.44;127571;1093;23810;-83
2021/08/21 03:31:15;;;;;;;8.40;4.85;;;;;;;15.70;81.61;96929.70;127605;1093;26596;-82
2021/08/21 03:33:46;;;;;;;5.80;3.77;;;;;;;15.70;81.48;96928.92;127575;1093;22801;-82
2021/08/21 03:36:18;;;;;;;6.58;4.13;;;;;;;15.65;81.28;96931.72;127579;1093;23009;-83
2021/08/21 03:38:49;;;;;;;7.70;4.57;;;;;;;15.64;81.46;96930.94;127584;1093;23864;-84
2021/08/21 03:41:20;;;;;;;5.73;3.88;;;;;;;15.61;81.55;96936.86;127561;1093;26280;-82
2021/08/21 03:43:52;;;;;;;5.13;4.10;;;;;;;15.56;81.58;96938.84;127558;1093;26242;-82
2021/08/21 03:46:23;;;;;;;7.88;4.23;;;;;;;15.50;81.72;96940.05;127556;1093;28241;-83
2021/08/21 03:48:54;;;;;;;5.05;3.73;;;;;;;15.36;81.83;96940.88;127565;1093;26311;-83
2021/08/21 03:51:26;;;;;;;5.73;4.40;;;;;;;15.32;82.16;96939.88;127650;1093;26808;-83
2021/08/21 03:53:57;;;;;;;5.90;3.88;;;;;;;15.30;82.01;96952.75;127686;1093;24206;-83
2021/08/21 03:56:29;;;;;;;5.65;3.80;;;;;;;15.30;82.10;96952.75;127650;1093;24295;-83
2021/08/21 03:59:00;;;;;;;7.13;3.83;;;;;;;15.33;82.13;96952.14;127564;1093;29608;-82
2021/08/21 04:01:32;;;;;;;7.05;3.65;;;;;;;15.35;81.85;96949.98;127605;1093;26255;-82
2021/08/21 04:04:03;;;;;;;7.70;4.03;;;;;;;15.38;82.02;96957.39;127583;1093;22826;-82
2021/08/21 04:06:38;;;;;;;6.63;3.90;;;;;;;15.43;81.94;96954.60;127615;1093;26264;-82
2021/08/21 04:09:09;;;;;;;5.78;3.95;;;;;;;15.48;82.07;96953.69;127573;1093;22830;-83
2021/08/21 04:11:41;;;;;;;5.30;3.50;;;;;;;15.55;82.01;96959.42;127550;1093;31824;-83
2021/08/21 04:14:12;;;;;;;6.17;4.10;;;;;;;15.63;81.98;96972.12;127547;1093;31353;-82
2021/08/21 04:16:44;;;;;;;8.50;4.75;;;;;;;15.70;81.83;96967.13;127658;1093;26828;-82
2021/08/21 04:19:15;;;;;;;9.40;4.35;;;;;;;15.75;81.47;96966.22;127648;1093;22792;-83
2021/08/21 04:21:46;;;;;;;9.30;4.70;;;;;;;15.77;81.65;96971.28;127580;1093;24147;-82
2021/08/21 04:24:18;;;;;;;5.35;3.40;;;;;;;15.84;81.55;96972.44;127615;1093;24694;-82
2021/08/21 04:26:49;;;;;;;4.78;3.40;;;;;;;15.93;81.52;96973.30;127574;1093;29890;-82
2021/08/21 04:29:20;;;;;;;6.43;3.53;;;;;;;16.16;81.44;96970.61;127575;1093;25845;-83
2021/08/21 04:31:52;;;;;;;6.43;3.97;;;;;;;16.58;81.12;96967.39;127619;1092;22799;-83
2021/08/21 04:34:23;;;;;;;7.23;3.93;;;;;;;16.79;80.33;96972.25;127558;1093;23567;-83
2021/08/21 04:36:56;;;;;;;7.70;4.33;;;;;;;16.86;80.03;96973.37;127692;1093;28451;-82
2021/08/21 04:39:28;;;;;;;9.38;4.15;;;;;;;16.90;79.51;96965.53;127673;1093;29703;-82
2021/08/21 04:41:59;;;;;;;5.58;3.73;;;;;;;16.84;79.14;96975.57;127627;1093;26542;-82
2021/08/21 04:44:31;;;;;;;7.43;3.55;;;;;;;16.76;79.12;96976.34;127581;1092;23284;-82
2021/08/21 04:47:02;;;;;;;7.20;4.40;;;;;;;16.78;78.93;96984.06;127676;1093;22823;-81
2021/08/21 04:49:34;;;;;;;6.55;3.95;;;;;;;18.08;79.19;96987.79;127594;1091;29088;-82
2021/08/21 04:52:07;;;;;;;6.00;3.20;;;;;;;19.47;76.89;96983.54;127535;1093;32837;-82
2021/08/21 04:54:39;;;;;;;4.80;3.00;;;;;;;20.80;74.50;96980.98;127564;1093;28928;-83
2021/08/21 04:57:10;;;;;;;4.20;3.08;;;;;;;21.86;71.72;96976.22;127626;1093;25921;-83
2021/08/21 04:59:41;;;;;;;5.58;3.23;;;;;;;22.93;70.26;96987.20;127573;1093;22802;-84
2021/08/21 05:02:13;;;;;;;7.98;4.03;;;;;;;23.79;66.35;96986.48;127550;1093;36939;-83
2021/08/21 05:04:44;;;;;;;5.33;3.70;;;;;;;24.36;66.88;96977.63;127574;1093;24769;-84
2021/08/21 05:07:16;;;;;;;7.03;4.45;;;;;;;25.27;64.53;96982.28;127620;1093;26920;-83
2021/08/21 05:09:47;;;;;;;7.03;3.80;;;;;;;25.86;63.72;96983.53;127585;1093;24978;-83
2021/08/21 05:12:19;;;;;;;5.80;3.13;;;;;;;26.31;62.07;96985.23;127595;1093;26126;-83
2021/08/21 05:14:50;;;;;;;6.18;3.60;;;;;;;27.19;60.48;96990.02;127531;1093;35354;-83
2021/08/21 05:17:22;;;;;;;5.55;4.05;;;;;;;27.74;58.53;96994.70;127593;1093;24710;-84
2021/08/21 05:19:54;;;;;;;6.23;4.33;;;;;;;28.41;58.03;96985.25;127595;1093;25556;-84
2021/08/21 05:22:27;;;;;;;5.13;3.75;;;;;;;29.17;54.80;96993.19;127608;1093;22893;-83
2021/08/21 05:24:59;;;;;;;6.08;3.88;;;;;;;29.78;54.81;96993.90;127664;1093;26650;-83
2021/08/21 05:27:32;;;;;;;5.23;3.58;;;;;;;30.41;53.34;96994.87;127575;1092;24746;-82
2021/08/21 05:30:05;;;;;;;5.08;3.88;;;;;;;30.79;51.73;97001.30;127578;1093;23189;-82
2021/08/21 05:32:37;;;;;;;5.50;3.70;;;;;;;30.49;50.45;97004.58;127544;1093;24443;-84
2021/08/21 05:35:10;;;;;;;4.80;3.60;;;;;;;29.69;50.22;97002.50;127571;1093;27758;-83
2021/08/21 05:37:42;;;;;;;6.53;3.80;;;;;;;29.49;50.32;96999.42;127558;1093;24142;-83
2021/08/21 05:40:14;;;;;;;5.63;3.90;;;;;;;30.07;50.08;97008.29;127521;1093;51803;-83
2021/08/21 05:42:46;;;;;;;5.70;3.50;;;;;;;30.70;48.80;97000.98;127588;1093;37281;-83
2021/08/21 05:45:17;;;;;;;4.43;3.40;;;;;;;31.64;48.24;97013.54;127557;1093;28194;-83
2021/08/21 05:47:51;;;;;;;6.05;3.78;;;;;;;32.71;47.25;97015.07;127568;1093;27293;-84
2021/08/21 05:50:24;;;;;;;2.85;2.40;;;;;;;33.39;43.46;97012.11;127668;1093;25431;-83
2021/08/21 05:52:55;;;;;;;7.20;2.18;;;;;;;33.13;41.50;97023.89;127657;1093;26274;-83
2021/08/21 05:55:27;;;;;;;2.33;1.78;;;;;;;33.16;40.33;97017.56;127630;1093;26852;-83
2021/08/21 05:57:58;;;;;;;2.20;1.83;;;;;;;32.85;39.27;97017.64;127640;1092;40208;-84
2021/08/21 06:00:30;;;;;;;4.00;2.00;;;;;;;32.64;38.80;97020.64;127576;1093;25447;-82
2021/08/21 06:03:02;;;;;;;3.60;1.90;;;;;;;32.99;39.83;97025.66;127580;1093;24481;-83
2021/08/21 06:05:34;;;;;;;2.80;2.10;;;;;;;33.22;38.26;97022.18;127615;1093;25177;-83
2021/08/21 06:08:06;;;;;;;3.23;2.75;;;;;;;31.66;38.21;97029.58;127609;1093;27113;-84
2021/08/21 06:10:38;;;;;;;4.98;2.80;;;;;;;30.07;38.73;97032.90;127526;1093;85272;-83
2021/08/21 06:13:10;;;;;;;6.55;3.35;;;;;;;28.34;40.65;97035.11;127553;1092;23602;-83
2021/08/21 06:15:42;;;;;;;5.55;3.28;;;;;;;27.03;42.63;97038.50;127556;1093;22832;-85
2021/08/21 06:18:13;;;;;;;5.20;3.90;;;;;;;26.76;44.34;97037.03;127558;1093;25141;-84
2021/08/21 06:20:45;;;;;;;4.50;3.50;;;;;;;28.36;44.27;97039.01;127564;1093;25361;-84
2021/08/21 06:23:16;;;;;;;5.45;3.70;;;;;;;28.45;42.44;97040.61;127571;1093;23763;-83
2021/08/21 06:25:48;;;;;;;6.20;4.23;;;;;;;28.11;42.65;97038.08;127595;1092;26688;-83
2021/08/21 06:28:19;;;;;;;5.58;3.93;;;;;;;27.00;43.28;97044.63;127560;1093;23192;-83
2021/08/21 06:30:51;;;;;;;4.88;4.10;;;;;;;26.34;44.84;97038.88;127593;1093;26375;-83
2021/08/21 06:33:22;;;;;;;6.65;4.10;;;;;;;26.40;44.71;97035.85;127574;1093;25738;-83
2021/08/21 06:35:54;;;;;;;6.28;4.28;;;;;;;25.59;45.39;97039.77;127679;1093;25851;-83
2021/08/21 06:38:25;;;;;;;6.40;4.60;;;;;;;24.41;46.47;97042.36;127667;1093;26992;-83
2021/08/21 06:40:57;;;;;;;4.85;3.45;;;;;;;23.61;48.74;97049.14;127605;1093;25629;-84
2021/08/21 06:43:28;;;;;;;8.05;4.65;;;;;;;23.49;49.92;97049.21;127608;1093;26832;-84
2021/08/21 06:46:08;;;;;;;6.75;4.80;;;;;;;23.54;50.09;97050.89;127571;1093;48677;-83
2021/08/21 06:48:40;;;;;;;7.03;4.18;;;;;;;23.58;50.51;97057.19;127575;1092;30069;-83
2021/08/21 06:51:14;;;;;;;8.48;5.03;;;;;;;22.81;50.32;97052.16;127566;1093;33161;-83
2021/08/21 06:53:46;;;;;;;6.50;4.45;;;;;;;22.03;52.38;97050.73;127619;1093;24792;-82
2021/08/21 06:56:18;;;;;;;6.10;4.67;;;;;;;21.68;53.67;97055.88;127563;1093;31457;-84
2021/08/21 06:58:49;;;;;;;6.68;4.33;;;;;;;21.85;54.52;97054.84;127581;1093;25825;-84
2021/08/21 07:01:21;;;;;;;7.40;5.05;;;;;;;22.98;55.60;97057.27;127546;1093;24013;-83
2021/08/21 07:03:52;;;;;;;6.95;4.83;;;;;;;24.35;53.37;97059.25;127631;1093;31915;-83
2021/08/21 07:06:24;;;;;;;6.28;4.70;;;;;;;24.68;52.42;97056.04;127610;1093;24576;-83
2021/08/21 07:08:56;;;;;;;5.63;4.57;;;;;;;25.60;51.91;97054.91;127622;1093;24339;-82
2021/08/21 07:11:27;;;;;;;6.78;4.93;;;;;;;25.73;49.26;97055.52;127620;1093;54685;-84
2021/08/21 07:13:59;;;;;;;5.25;4.15;;;;;;;25.37;49.54;97060.39;127633;1093;27854;-84
2021/08/21 07:16:30;;;;;;;6.10;4.38;;;;;;;24.79;49.60;97062.45;127541;1092;24110;-82
2021/08/21 07:19:02;;;;;;;7.43;4.70;;;;;;;24.51;50.42;97063.48;127600;1093;24158;-81
2021/08/21 07:21:33;;;;;;;6.83;4.80;;;;;;;24.22;49.99;97066.73;127558;1093;25799;-83
2021/08/21 07:24:05;;;;;;;6.28;3.80;;;;;;;24.21;51.13;97065.95;127590;1093;29888;-82
2021/08/21 07:26:37;;;;;;;7.30;4.50;;;;;;;23.97;50.69;97077.03;127556;1091;25906;-84
2021/08/21 07:29:09;;;;;;;7.55;4.50;;;;;;;23.52;51.09;97081.02;127548;1091;27445;-83
2021/08/21 07:31:40;;;;;;;8.70;5.10;;;;;;;23.79;50.81;97076.64;127594;1093;26508;-83
2021/08/21 07:34:12;;;;;;;7.43;5.28;;;;;;;23.48;51.14;97080.13;127545;1093;24697;-82
2021/08/21 07:36:43;;;;;;;6.83;4.73;;;;;;;23.44;52.13;97087.38;127584;1093;27690;-83
2021/08/21 07:39:15;;;;;;;5.83;4.10;;;;;;;23.65;52.44;97089.84;127590;1091;51431;-83
2021/08/21 07:41:47;;;;;;;6.75;4.48;;;;;;;24.37;52.41;97081.39;127600;1093;25312;-83
2021/08/21 07:44:18;;;;;;;6.55;4.13;;;;;;;25.63;51.42;97088.72;127570;1093;23742;-82
2021/08/21 07:46:49;;;;;;;9.33;4.60;;;;;;;26.28;50.18;97088.48;127569;1093;29529;-83
2021/08/21 07:49:21;;;;;;;6.08;4.05;;;;;;;27.89;47.96;97097.16;127591;1092;23377;-83
2021/08/21 07:51:53;;;;;;;5.47;3.50;;;;;;;28.07;47.00;97091.81;127578;1092;30493;-83
2021/08/21 07:54:25;;;;;;;5.30;3.53;;;;;;;27.34;46.42;97088.93;127580;1093;22924;-83
2021/08/21 07:56:56;;;;;;;3.80;3.20;;;;;;;27.10;46.68;97097.64;127605;1093;71460;-83
2021/08/21 07:59:28;;;;;;;6.35;3.60;;;;;;;27.23;47.03;97084.54;127661;1092;26264;-83
2021/08/21 08:01:59;;;;;;;5.85;3.85;;;;;;;28.42;47.63;97088.50;127603;1092;36668;-83
2021/08/21 08:04:31;;;;;;;4.65;3.35;;;;;;;29.27;44.88;97090.70;127570;1093;24040;-81
2021/08/21 08:07:02;;;;;;;5.55;3.05;;;;;;;28.68;43.75;97090.94;127593;1093;26322;-82
2021/08/21 08:09:34;;;;;;;5.03;3.00;;;;;;;27.72;43.42;97092.34;127575;1093;25047;-82
2021/08/21 08:12:06;;;;;;;5.40;3.53;;;;;;;26.76;42.99;97086.78;127564;1093;25954;-84
2021/08/21 08:14:38;;;;;;;5.03;3.10;;;;;;;26.13;43.79;97082.09;127589;1093;26748;-83
2021/08/21 08:17:09;;;;;;;4.63;2.85;;;;;;;25.99;45.68;97092.76;127589;1093;23214;-83
2021/08/21 08:19:41;;;;;;;4.63;3.10;;;;;;;26.13;46.63;97092.95;127552;1093;34262;-82
2021/08/21 08:22:12;;;;;;;5.30;3.18;;;;;;;27.84;46.57;97091.27;127512;1093;33687;-83
2021/08/21 08:24:43;;;;;;;5.18;3.40;;;;;;;28.36;44.59;97095.50;127563;1092;24385;-83
2021/08/21 08:27:18;;;;;;;4.48;3.63;;;;;;;28.32;43.65;97097.44;127567;1093;27131;-82
2021/08/21 08:29:49;;;;;;;8.40;4.23;;;;;;;28.29;44.55;97101.71;127567;1093;25943;-83
2021/08/21 08:32:21;;;;;;;5.83;3.10;;;;;;;28.54;44.34;97103.75;127624;1093;24700;-82
2021/08/21 08:34:52;;;;;;;5.10;3.75;;;;;;;28.76;44.50;97107.35;127617;1093;23162;-83
2021/08/21 08:37:24;;;;;;;5.30;3.73;;;;;;;28.50;44.26;97109.20;127545;1093;24141;-83
2021/08/21 08:39:55;;;;;;;6.68;3.78;;;;;;;27.80;44.04;97113.83;127589;1091;24053;-83
2021/08/21 08:42:27;;;;;;;6.40;3.45;;;;;;;26.78;43.94;97103.51;127643;1093;26391;-83
2021/08/21 08:44:58;;;;;;;7.18;3.43;;;;;;;26.09;45.46;97111.16;127691;1093;25628;-83
2021/08/21 08:47:31;;;;;;;7.55;4.05;;;;;;;25.67;46.44;97119.42;127611;1093;25349;-81
2021/08/21 08:50:04;;;;;;;5.85;3.65;;;;;;;25.39;46.46;97123.23;127620;1093;24231;-81
2021/08/21 08:52:36;;;;;;;5.40;3.68;;;;;;;25.12;46.71;97122.38;127620;1093;24204;-83
2021/08/21 08:55:11;;;;;;;4.65;3.13;;;;;;;24.83;47.72;97114.83;127559;1093;33675;-82
2021/08/21 08:57:46;;;;;;;5.93;3.67;;;;;;;24.56;47.60;97122.04;127588;1092;24552;-82
2021/08/21 09:00:23;;;;;;;6.45;4.10;;;;;;;24.52;48.77;97121.19;127617;1093;24663;-82
2021/08/21 09:02:56;;;;;;;5.13;3.60;;;;;;;24.91;48.89;97121.16;127629;1093;26466;-83
2021/08/21 09:05:35;;;;;;;4.65;3.55;;;;;;;24.99;49.53;97120.16;127616;1093;26314;-83
2021/08/21 09:08:20;;;;;;;5.33;3.73;;;;;;;25.00;48.92;97117.11;127704;1093;24930;-82
2021/08/21 09:10:51;;;;;;;12.35;5.50;;;;;;;24.87;49.31;97110.24;127647;1093;24292;-83
2021/08/21 09:13:23;;;;;;;11.17;5.07;;;;;;;24.55;48.29;97120.47;127596;1093;25173;-82
2021/08/21 09:15:58;;;;;;;5.68;3.90;;;;;;;24.08;48.94;97128.73;127575;1093;25637;-83
2021/08/21 09:18:31;;;;;;;4.70;3.70;;;;;;;23.94;49.48;97121.08;127589;1093;31298;-82
2021/08/21 09:21:04;;;;;;;4.98;3.53;;;;;;;24.23;51.36;97117.85;127561;1093;23663;-83
2021/08/21 09:23:38;;;;;;;6.28;4.00;;;;;;;24.42;50.09;97127.95;127587;1093;24401;-82
2021/08/21 09:26:14;;;;;;;5.78;3.65;;;;;;;24.39;50.31;97125.17;127646;1093;31578;-83
2021/08/21 09:28:48;;;;;;;4.63;3.43;;;;;;;24.35;49.70;97124.30;127544;1093;24790;-82
2021/08/21 09:31:22;;;;;;;5.38;3.58;;;;;;;23.97;49.12;97123.07;127634;1092;24649;-83
2021/08/21 09:33:57;;;;;;;5.68;3.45;;;;;;;23.63;50.11;97125.36;127643;1093;29400;-82
2021/08/21 09:36:33;;;;;;;5.40;3.65;;;;;;;23.27;49.88;97131.80;127544;1093;29662;-82
2021/08/21 09:39:08;;;;;;;5.90;3.25;;;;;;;23.15;50.73;97125.67;127569;1093;26000;-83
2021/08/21 09:41:54;;;;;;;5.08;3.55;;;;;;;23.30;51.28;97122.20;127592;1092;24149;-83
2021/08/21 09:44:31;;;;;;;6.50;3.75;;;;;;;23.57;51.85;97121.36;127627;1092;24498;-82
2021/08/21 09:47:14;;;;;;;5.65;3.73;;;;;;;23.87;51.45;97118.19;127557;1093;22798;-83
2021/08/21 09:49:48;;;;;;;7.63;4.10;;;;;;;23.98;50.63;97117.30;127567;1091;23418;-82
2021/08/21 09:52:21;;;;;;;5.20;3.50;;;;;;;24.18;51.50;97120.82;127659;1092;26633;-82
2021/08/21 09:55:09;;;;;;;6.03;3.88;;;;;;;23.72;50.42;97110.88;127626;1093;33086;-82
2021/08/21 09:57:42;;;;;;;7.98;3.98;;;;;;;23.34;51.92;97118.44;127558;1093;27207;-82
2021/08/21 10:00:15;;;;;;;6.43;3.70;;;;;;;23.49;51.92;97118.80;127721;1093;29240;-82
2021/08/21 10:02:47;;;;;;;4.60;3.78;;;;;;;23.50;52.55;97121.15;127552;1092;26593;-83
2021/08/21 10:05:20;;;;;;;5.73;3.50;;;;;;;23.40;52.38;97130.59;127641;1093;22818;-83
2021/08/21 10:07:57;;;;;;;6.63;3.40;;;;;;;23.25;52.13;97127.88;127640;1092;24904;-83
2021/08/21 10:10:35;;;;;;;5.55;3.80;;;;;;;22.73;51.63;97128.78;127575;1092;24278;-82
2021/08/21 10:13:10;;;;;;;6.23;3.80;;;;;;;22.15;52.20;97128.27;127525;1093;77694;-83
2021/08/21 10:15:43;;;;;;;5.20;3.67;;;;;;;21.70;52.98;97126.48;127569;1093;43384;-83
2021/08/21 10:18:18;;;;;;;5.28;3.85;;;;;;;21.46;53.56;97126.46;127476;1091;41461;-84
2021/08/21 10:20:50;;;;;;;5.55;4.10;;;;;;;21.51;54.37;97129.72;127621;1093;24110;-83
2021/08/21 10:23:26;;;;;;;4.63;3.25;;;;;;;21.57;55.06;97119.51;127595;1093;24276;-82
2021/08/21 10:26:04;;;;;;;4.85;3.70;;;;;;;21.66;56.11;97122.86;127649;1093;25606;-83
2021/08/21 10:28:41;;;;;;;4.75;3.68;;;;;;;21.93;55.39;97127.58;127562;1093;25778;-83
2021/08/21 10:31:38;;;;;;;5.18;3.48;;;;;;;22.18;55.43;97124.88;127576;1093;26066;-82
2021/08/21 10:34:12;;;;;;;4.08;3.28;;;;;;;22.60;55.20;97121.84;127546;1093;26538;-83
2021/08/21 10:36:50;;;;;;;5.35;3.50;;;;;;;22.74;54.62;97117.62;127589;1091;25043;-82
2021/08/21 10:39:37;;;;;;;5.60;3.68;;;;;;;22.61;54.54;97112.61;127600;1093;26956;-83
2021/08/21 10:42:27;;;;;;;6.45;3.65;;;;;;;22.69;54.41;97103.58;127558;1093;25012;-82
2021/08/21 10:45:00;;;;;;;4.85;3.38;;;;;;;22.72;54.50;97110.98;127620;1093;25898;-83
2021/08/21 10:47:42;;;;;;;4.60;3.60;;;;;;;22.74;54.92;97108.72;127626;1093;24651;-83
2021/08/21 10:50:37;;;;;;;5.80;3.40;;;;;;;22.86;55.18;97113.32;127552;1093;61870;-82
2021/08/21 10:53:09;;;;;;;4.63;3.63;;;;;;;22.95;54.67;97106.64;127500;1093;54121;-82
2021/08/21 10:55:43;;;;;;;5.05;3.28;;;;;;;22.97;54.84;97109.78;127564;1093;23419;-83
2021/08/21 10:58:17;;;;;;;4.45;3.35;;;;;;;23.09;55.76;97107.01;127582;1093;26203;-82
2021/08/21 11:01:04;;;;;;;4.88;3.50;;;;;;;23.17;53.67;97118.00;127679;1091;23878;-83
2021/08/21 11:03:53;;;;;;;4.20;3.30;;;;;;;22.91;51.95;97111.14;127518;1093;51677;-82
2021/08/21 11:06:41;;;;;;;5.90;3.23;;;;;;;22.74;51.99;97111.42;127602;1093;24470;-82
2021/08/21 11:09:28;;;;;;;4.05;3.08;;;;;;;22.66;51.68;97112.34;127571;1093;25222;-83
2021/08/21 11:11:59;;;;;;;5.05;3.05;;;;;;;22.65;52.28;97108.08;127523;1093;29221;-83
2021/08/21 11:14:39;;;;;;;5.70;2.83;;;;;;;22.61;51.61;97101.80;127608;1093;26017;-83
2021/08/21 11:17:15;;;;;;;4.38;2.88;;;;;;;22.81;52.69;97104.31;127591;1093;27193;-83
2021/08/21 11:19:48;;;;;;;5.18;3.73;;;;;;;23.00;53.60;97092.85;127562;1093;34156;-82
2021/08/21 11:22:22;;;;;;;4.53;3.20;;;;;;;22.93;52.72;97092.66;127645;1093;27714;-82
2021/08/21 11:25:14;;;;;;;7.30;4.10;;;;;;;22.80;53.27;97091.11;127575;1093;24461;-82
2021/08/21 11:27:46;;;;;;;3.58;3.20;;;;;;;22.72;52.65;97089.37;127538;1093;27847;-82
2021/08/21 11:30:27;;;;;;;3.90;3.20;;;;;;;22.68;53.55;97086.57;127658;1090;25495;-82
2021/08/21 11:33:16;;;;;;;4.18;2.65;;;;;;;22.65;52.92;97086.45;127574;1093;22895;-82
2021/08/21 11:35:51;;;;;;;6.83;3.90;;;;;;;22.66;53.97;97080.73;127637;1093;26633;-82
2021/08/21 11:38:30;;;;;;;5.20;3.63;;;;;;;22.45;53.70;97086.31;127553;1093;31106;-82
2021/08/21 11:41:05;;;;;;;5.48;3.65;;;;;;;22.60;53.64;97090.20;127570;1093;27861;-82
2021/08/21 11:43:41;;;;;;;6.15;3.73;;;;;;;22.73;53.16;97088.23;127649;1093;24620;-82
2021/08/21 11:46:24;;;;;;;4.35;3.25;;;;;;;22.67;52.56;97095.03;127521;1093;34541;-82
2021/08/21 11:49:06;;;;;;;4.50;3.15;;;;;;;22.54;52.74;97085.40;127520;1093;34137;-82
2021/08/21 11:51:38;;;;;;;5.33;3.75;;;;;;;22.57;52.25;97090.89;127589;1093;24409;-82